sensor_id;sensor_type;location;lat;lon;timestamp;pressure;altitude;pressure_sealevel;temperature;humidity
5883;BME280;2967;51.488;6.618;2023-04-21T00:02:18;101186.16;;;10.41;100.00
5883;BME280;2967;51.488;6.618;2023-04-21T00:07:20;101192.97;;;10.44;100.00
5883;BME280;2967;51.488;6.618;2023-04-21T00:12:23;101187.13;;;10.40;100.00
5883;BME280;2967;51.488;6.618;2023-04-21T00:17:27;101191.66;;;10.38;100.00
5883;BME280;2967;51.488;6.618;2023-04-21T00:22:30;101186.06;;;10.42;100.00
5883;BME280;2967;51.488;6.618;2023-04-21T00:27:32;101181.06;;;10.38;100.00
5883;BME280;2967;51.488;6.618;2023-04-21T00:32:36;101175.09;;;10.34;100.00
5883;BME280;2967;51.488;6.618;2023-04-21T00:37:39;101157.94;;;10.26;100.00
5883;BME280;2967;51.488;6.618;2023-04-21T00:42:42;101171.66;;;10.32;100.00
5883;BME280;2967;51.488;6.618;2023-04-21T00:47:45;101143.72;;;10.28;100.00
5883;BME280;2967;51.488;6.618;2023-04-21T00:52:48;101135.78;;;10.28;100.00
5883;BME280;2967;51.488;6.618;2023-04-21T00:57:51;101138.59;;;10.25;100.00
5883;BME280;2967;51.488;6.618;2023-04-21T01:02:56;101130.41;;;10.30;100.00
5883;BME280;2967;51.488;6.618;2023-04-21T01:08:00;101127.28;;;10.23;100.00
5883;BME280;2967;51.488;6.618;2023-04-21T01:13:03;101144.66;;;10.27;100.00
5883;BME280;2967;51.488;6.618;2023-04-21T01:18:07;101128.13;;;10.24;100.00
5883;BME280;2967;51.488;6.618;2023-04-21T01:23:11;101145.69;;;10.25;100.00
5883;BME280;2967;51.488;6.618;2023-04-21T01:28:13;101128.88;;;10.26;100.00
5883;BME280;2967;51.488;6.618;2023-04-21T01:33:16;101127.28;;;10.23;100.00
5883;BME280;2967;51.488;6.618;2023-04-21T01:38:21;101115.91;;;10.21;100.00
5883;BME280;2967;51.488;6.618;2023-04-21T01:43:24;101120.28;;;10.22;100.00
5883;BME280;2967;51.488;6.618;2023-04-21T01:48:27;101108.94;;;10.20;100.00
5883;BME280;2967;51.488;6.618;2023-04-21T01:53:31;101119.22;;;10.25;100.00
5883;BME280;2967;51.488;6.618;2023-04-21T01:58:35;101108.66;;;10.25;100.00
5883;BME280;2967;51.488;6.618;2023-04-21T02:03:38;101098.00;;;10.26;100.00
5883;BME280;2967;51.488;6.618;2023-04-21T02:08:43;101102.63;;;10.23;100.00
5883;BME280;2967;51.488;6.618;2023-04-21T02:13:52;101100.06;;;10.21;100.00
5883;BME280;2967;51.488;6.618;2023-04-21T02:18:56;101101.78;;;10.22;100.00
5883;BME280;2967;51.488;6.618;2023-04-21T02:24:02;101103.22;;;10.28;100.00
5883;BME280;2967;51.488;6.618;2023-04-21T02:29:05;101094.41;;;10.27;100.00
5883;BME280;2967;51.488;6.618;2023-04-21T02:34:07;101084.88;;;10.25;100.00
5883;BME280;2967;51.488;6.618;2023-04-21T02:39:13;101092.66;;;10.28;100.00
5883;BME280;2967;51.488;6.618;2023-04-21T02:44:16;101089.06;;;10.29;100.00
5883;BME280;2967;51.488;6.618;2023-04-21T02:49:19;101083.94;;;10.26;100.00
5883;BME280;2967;51.488;6.618;2023-04-21T02:54:23;101089.88;;;10.29;100.00
5883;BME280;2967;51.488;6.618;2023-04-21T02:59:26;101085.28;;;10.33;100.00
5883;BME280;2967;51.488;6.618;2023-04-21T03:04:29;101082.44;;;10.36;100.00
5883;BME280;2967;51.488;6.618;2023-04-21T03:09:34;101079.63;;;10.39;100.00
5883;BME280;2967;51.488;6.618;2023-04-21T03:14:36;101075.84;;;10.43;100.00
5883;BME280;2967;51.488;6.618;2023-04-21T03:19:40;101076.72;;;10.43;100.00
5883;BME280;2967;51.488;6.618;2023-04-21T03:24:44;101082.34;;;10.37;100.00
5883;BME280;2967;51.488;6.618;2023-04-21T03:29:47;101085.88;;;10.38;100.00
5883;BME280;2967;51.488;6.618;2023-04-21T03:34:50;101082.63;;;10.33;100.00
5883;BME280;2967;51.488;6.618;2023-04-21T03:39:54;101090.84;;;10.28;100.00
5883;BME280;2967;51.488;6.618;2023-04-21T03:45:00;101084.31;;;10.20;100.00
5883;BME280;2967;51.488;6.618;2023-04-21T03:50:07;101099.22;;;10.21;100.00
5883;BME280;2967;51.488;6.618;2023-04-21T03:55:11;101099.22;;;10.21;100.00
5883;BME280;2967;51.488;6.618;2023-04-21T04:00:14;101100.69;;;10.11;100.00
5883;BME280;2967;51.488;6.618;2023-04-21T04:05:16;101088.31;;;10.11;100.00
5883;BME280;2967;51.488;6.618;2023-04-21T04:10:20;101081.94;;;10.00;100.00
5883;BME280;2967;51.488;6.618;2023-04-21T04:15:24;101073.13;;;9.99;100.00
5883;BME280;2967;51.488;6.618;2023-04-21T04:20:27;101075.88;;;9.98;100.00
5883;BME280;2967;51.488;6.618;2023-04-21T04:25:31;101078.13;;;10.05;100.00
5883;BME280;2967;51.488;6.618;2023-04-21T04:30:34;101081.19;;;9.98;100.00
5883;BME280;2967;51.488;6.618;2023-04-21T04:35:37;101087.97;;;10.02;100.00
5883;BME280;2967;51.488;6.618;2023-04-21T04:40:41;101084.22;;;10.06;100.00
5883;BME280;2967;51.488;6.618;2023-04-21T04:45:43;101095.66;;;10.06;100.00
5883;BME280;2967;51.488;6.618;2023-04-21T04:50:46;101085.03;;;10.08;100.00
5883;BME280;2967;51.488;6.618;2023-04-21T04:55:50;101095.41;;;10.11;100.00
5883;BME280;2967;51.488;6.618;2023-04-21T05:00:53;101096.84;;;10.16;100.00
5883;BME280;2967;51.488;6.618;2023-04-21T05:05:56;101101.09;;;10.19;100.00
5883;BME280;2967;51.488;6.618;2023-04-21T05:11:00;101103.81;;;10.17;100.00
5883;BME280;2967;51.488;6.618;2023-04-21T05:16:03;101106.97;;;10.24;100.00
5883;BME280;2967;51.488;6.618;2023-04-21T05:21:06;101106.22;;;10.22;100.00
5883;BME280;2967;51.488;6.618;2023-04-21T05:26:09;101113.28;;;10.21;100.00
5883;BME280;2967;51.488;6.618;2023-04-21T05:31:12;101108.16;;;10.18;100.00
5883;BME280;2967;51.488;6.618;2023-04-21T05:36:16;101103.47;;;10.23;100.00
5883;BME280;2967;51.488;6.618;2023-04-21T05:41:23;101117.94;;;10.32;100.00
5883;BME280;2967;51.488;6.618;2023-04-21T05:46:26;101116.66;;;10.39;100.00
5883;BME280;2967;51.488;6.618;2023-04-21T05:51:30;101123.19;;;10.47;100.00
5883;BME280;2967;51.488;6.618;2023-04-21T05:56:34;101117.28;;;10.57;100.00
5883;BME280;2967;51.488;6.618;2023-04-21T06:01:37;101113.69;;;10.72;100.00
5883;BME280;2967;51.488;6.618;2023-04-21T06:06:39;101124.41;;;10.85;100.00
5883;BME280;2967;51.488;6.618;2023-04-21T06:11:43;101112.41;;;10.93;100.00
5883;BME280;2967;51.488;6.618;2023-04-21T06:16:46;101106.28;;;10.93;100.00
5883;BME280;2967;51.488;6.618;2023-04-21T06:21:48;101100.59;;;10.99;100.00
5883;BME280;2967;51.488;6.618;2023-04-21T06:26:52;101113.72;;;11.00;100.00
5883;BME280;2967;51.488;6.618;2023-04-21T06:31:55;101116.47;;;10.99;100.00
5883;BME280;2967;51.488;6.618;2023-04-21T06:36:57;101113.72;;;11.00;100.00
5883;BME280;2967;51.488;6.618;2023-04-21T06:42:01;101102.41;;;10.98;100.00
5883;BME280;2967;51.488;6.618;2023-04-21T06:47:04;101114.94;;;11.09;100.00
5883;BME280;2967;51.488;6.618;2023-04-21T06:52:07;101101.34;;;11.15;100.00
5883;BME280;2967;51.488;6.618;2023-04-21T06:57:10;101099.38;;;11.18;100.00
5883;BME280;2967;51.488;6.618;2023-04-21T07:02:15;101115.53;;;11.28;100.00
5883;BME280;2967;51.488;6.618;2023-04-21T07:07:18;101114.19;;;11.35;100.00
5883;BME280;2967;51.488;6.618;2023-04-21T07:12:22;101113.72;;;11.42;100.00
5883;BME280;2967;51.488;6.618;2023-04-21T07:17:24;101101.50;;;11.54;100.00
5883;BME280;2967;51.488;6.618;2023-04-21T07:22:27;101103.38;;;11.66;100.00
5883;BME280;2967;51.488;6.618;2023-04-21T07:27:31;101093.34;;;11.71;100.00
5883;BME280;2967;51.488;6.618;2023-04-21T07:32:33;101103.91;;;11.85;100.00
5883;BME280;2967;51.488;6.618;2023-04-21T07:37:37;101099.72;;;11.95;100.00
5883;BME280;2967;51.488;6.618;2023-04-21T07:42:42;101103.34;;;12.06;100.00
5883;BME280;2967;51.488;6.618;2023-04-21T07:47:44;101104.44;;;12.16;100.00
5883;BME280;2967;51.488;6.618;2023-04-21T07:52:47;101100.03;;;12.29;100.00
5883;BME280;2967;51.488;6.618;2023-04-21T07:57:51;101096.78;;;12.38;100.00
5883;BME280;2967;51.488;6.618;2023-04-21T08:02:54;101098.78;;;12.47;100.00
5883;BME280;2967;51.488;6.618;2023-04-21T08:07:57;101087.09;;;12.50;100.00
5883;BME280;2967;51.488;6.618;2023-04-21T08:13:00;101100.28;;;12.51;100.00
5883;BME280;2967;51.488;6.618;2023-04-21T08:18:04;101089.88;;;12.61;100.00
5883;BME280;2967;51.488;6.618;2023-04-21T08:23:06;101093.19;;;12.77;100.00
5883;BME280;2967;51.488;6.618;2023-04-21T08:28:10;101090.75;;;12.86;100.00
5883;BME280;2967;51.488;6.618;2023-04-21T08:33:14;101100.94;;;12.92;100.00
5883;BME280;2967;51.488;6.618;2023-04-21T08:38:17;101099.81;;;13.09;100.00
5883;BME280;2967;51.488;6.618;2023-04-21T08:43:21;101092.97;;;13.17;100.00
5883;BME280;2967;51.488;6.618;2023-04-21T08:48:25;101096.28;;;13.20;100.00
5883;BME280;2967;51.488;6.618;2023-04-21T08:53:29;101095.00;;;13.26;100.00
5883;BME280;2967;51.488;6.618;2023-04-21T08:58:33;101103.50;;;13.43;100.00
5883;BME280;2967;51.488;6.618;2023-04-21T09:03:35;101093.50;;;13.70;100.00
5883;BME280;2967;51.488;6.618;2023-04-21T09:08:41;101089.50;;;13.88;100.00
5883;BME280;2967;51.488;6.618;2023-04-21T09:13:46;101089.56;;;13.99;100.00
5883;BME280;2967;51.488;6.618;2023-04-21T09:18:49;101080.41;;;14.03;100.00
5883;BME280;2967;51.488;6.618;2023-04-21T09:23:52;101086.56;;;14.04;100.00
5883;BME280;2967;51.488;6.618;2023-04-21T09:28:57;101081.63;;;14.10;100.00
5883;BME280;2967;51.488;6.618;2023-04-21T09:33:59;101085.84;;;14.02;100.00
5883;BME280;2967;51.488;6.618;2023-04-21T09:39:04;101083.41;;;13.99;100.00
5883;BME280;2967;51.488;6.618;2023-04-21T09:44:12;101087.03;;;13.98;100.00
5883;BME280;2967;51.488;6.618;2023-04-21T09:49:15;101078.53;;;14.16;100.00
5883;BME280;2967;51.488;6.618;2023-04-21T09:54:20;101092.00;;;14.26;100.00
5883;BME280;2967;51.488;6.618;2023-04-21T09:59:31;101085.72;;;14.27;100.00
5883;BME280;2967;51.488;6.618;2023-04-21T10:04:36;101081.63;;;14.34;100.00
5883;BME280;2967;51.488;6.618;2023-04-21T10:09:43;101047.66;;;14.14;100.00
5883;BME280;2967;51.488;6.618;2023-04-21T10:14:50;101074.19;;;14.50;100.00
5883;BME280;2967;51.488;6.618;2023-04-21T10:19:54;101072.75;;;14.57;100.00
5883;BME280;2967;51.488;6.618;2023-04-21T10:24:59;101063.44;;;14.62;100.00
5883;BME280;2967;51.488;6.618;2023-04-21T10:35:59;101052.34;;;14.79;100.00
5883;BME280;2967;51.488;6.618;2023-04-21T10:41:26;101043.88;;;14.85;100.00
5883;BME280;2967;51.488;6.618;2023-04-21T10:46:33;101036.50;;;15.00;100.00
5883;BME280;2967;51.488;6.618;2023-04-21T10:52:05;101037.19;;;15.24;100.00
5883;BME280;2967;51.488;6.618;2023-04-21T10:57:09;101024.50;;;15.05;100.00
5883;BME280;2967;51.488;6.618;2023-04-21T11:02:15;100975.34;;;14.87;100.00
5883;BME280;2967;51.488;6.618;2023-04-21T11:07:21;101014.78;;;15.26;100.00
5883;BME280;2967;51.488;6.618;2023-04-21T11:12:27;101001.84;;;15.22;100.00
5883;BME280;2967;51.488;6.618;2023-04-21T11:17:30;101005.19;;;15.57;100.00
5883;BME280;2967;51.488;6.618;2023-04-21T11:22:35;100985.53;;;15.69;100.00
5883;BME280;2967;51.488;6.618;2023-04-21T11:27:39;100988.81;;;15.93;100.00
5883;BME280;2967;51.488;6.618;2023-04-21T11:32:41;100976.78;;;15.67;100.00
5883;BME280;2967;51.488;6.618;2023-04-21T11:37:48;100931.09;;;15.40;100.00
5883;BME280;2967;51.488;6.618;2023-04-21T11:42:51;100973.94;;;15.59;100.00
5883;BME280;2967;51.488;6.618;2023-04-21T11:48:12;100969.09;;;15.53;100.00
5883;BME280;2967;51.488;6.618;2023-04-21T11:53:18;100969.75;;;15.66;100.00
5883;BME280;2967;51.488;6.618;2023-04-21T11:58:20;100954.50;;;15.88;100.00
5883;BME280;2967;51.488;6.618;2023-04-21T12:03:24;100948.41;;;15.97;100.00
5883;BME280;2967;51.488;6.618;2023-04-21T12:08:29;100951.00;;;16.08;100.00
5883;BME280;2967;51.488;6.618;2023-04-21T12:13:32;100936.75;;;16.18;100.00
5883;BME280;2967;51.488;6.618;2023-04-21T12:18:36;100926.41;;;16.04;100.00
5883;BME280;2967;51.488;6.618;2023-04-21T12:23:40;100918.59;;;16.12;100.00
5883;BME280;2967;51.488;6.618;2023-04-21T12:28:44;100897.91;;;16.55;100.00
5883;BME280;2967;51.488;6.618;2023-04-21T12:33:47;100889.56;;;16.79;100.00
5883;BME280;2967;51.488;6.618;2023-04-21T12:38:51;100881.88;;;16.95;100.00
5883;BME280;2967;51.488;6.618;2023-04-21T12:43:54;100877.13;;;17.17;100.00
5883;BME280;2967;51.488;6.618;2023-04-21T12:48:57;100871.69;;;17.47;100.00
5883;BME280;2967;51.488;6.618;2023-04-21T12:54:01;100861.28;;;17.44;100.00
5883;BME280;2967;51.488;6.618;2023-04-21T12:59:04;100845.22;;;17.44;100.00
5883;BME280;2967;51.488;6.618;2023-04-21T13:04:07;100837.59;;;17.11;100.00
5883;BME280;2967;51.488;6.618;2023-04-21T13:09:12;100852.78;;;17.11;100.00
5883;BME280;2967;51.488;6.618;2023-04-21T13:14:14;100860.09;;;16.99;100.00
5883;BME280;2967;51.488;6.618;2023-04-21T13:19:19;100845.81;;;16.80;100.00
5883;BME280;2967;51.488;6.618;2023-04-21T13:24:26;100853.84;;;16.80;100.00
5883;BME280;2967;51.488;6.618;2023-04-21T13:29:29;100846.53;;;16.82;100.00
5883;BME280;2967;51.488;6.618;2023-04-21T13:34:34;100839.53;;;17.00;100.00
5883;BME280;2967;51.488;6.618;2023-04-21T13:39:38;100810.56;;;17.14;100.00
5883;BME280;2967;51.488;6.618;2023-04-21T13:44:41;100818.75;;;17.22;100.00
5883;BME280;2967;51.488;6.618;2023-04-21T13:49:44;100806.38;;;17.59;100.00
5883;BME280;2967;51.488;6.618;2023-04-21T13:54:49;100797.03;;;17.73;100.00
5883;BME280;2967;51.488;6.618;2023-04-21T13:59:52;100773.38;;;17.68;100.00
5883;BME280;2967;51.488;6.618;2023-04-21T14:04:55;100764.91;;;18.19;100.00
5883;BME280;2967;51.488;6.618;2023-04-21T14:09:59;100768.75;;;19.05;99.85
5883;BME280;2967;51.488;6.618;2023-04-21T14:15:03;100766.56;;;19.61;98.03
5883;BME280;2967;51.488;6.618;2023-04-21T14:20:07;100762.34;;;19.58;95.12
5883;BME280;2967;51.488;6.618;2023-04-21T14:25:13;100758.59;;;19.77;95.87
5883;BME280;2967;51.488;6.618;2023-04-21T14:30:17;100743.66;;;20.00;94.79
5883;BME280;2967;51.488;6.618;2023-04-21T14:35:23;100733.06;;;20.32;92.80
5883;BME280;2967;51.488;6.618;2023-04-21T14:40:29;100727.91;;;20.54;90.07
5883;BME280;2967;51.488;6.618;2023-04-21T14:45:32;100724.84;;;20.33;88.27
5883;BME280;2967;51.488;6.618;2023-04-21T14:50:34;100707.03;;;20.24;89.63
5883;BME280;2967;51.488;6.618;2023-04-21T14:55:38;100703.53;;;20.32;91.45
5883;BME280;2967;51.488;6.618;2023-04-21T15:00:41;100698.19;;;19.73;90.14
5883;BME280;2967;51.488;6.618;2023-04-21T15:05:43;100691.25;;;19.37;92.73
5883;BME280;2967;51.488;6.618;2023-04-21T15:10:48;100688.44;;;19.03;90.94
5883;BME280;2967;51.488;6.618;2023-04-21T15:15:50;100676.28;;;18.91;91.75
5883;BME280;2967;51.488;6.618;2023-04-21T15:20:53;100665.44;;;18.76;92.61
5883;BME280;2967;51.488;6.618;2023-04-21T15:25:57;100668.09;;;18.58;91.16
5883;BME280;2967;51.488;6.618;2023-04-21T15:31:01;100665.19;;;18.34;91.91
5883;BME280;2967;51.488;6.618;2023-04-21T15:36:06;100651.84;;;18.25;93.45
5883;BME280;2967;51.488;6.618;2023-04-21T15:41:10;100651.53;;;18.10;93.06
5883;BME280;2967;51.488;6.618;2023-04-21T15:46:12;100645.59;;;17.89;94.11
5883;BME280;2967;51.488;6.618;2023-04-21T15:51:17;100638.69;;;17.87;94.86
5883;BME280;2967;51.488;6.618;2023-04-21T15:56:21;100632.78;;;17.83;94.72
5883;BME280;2967;51.488;6.618;2023-04-21T16:01:23;100623.88;;;17.92;94.56
5883;BME280;2967;51.488;6.618;2023-04-21T16:06:26;100610.72;;;17.99;92.52
5883;BME280;2967;51.488;6.618;2023-04-21T16:11:32;100594.00;;;18.14;87.95
5883;BME280;2967;51.488;6.618;2023-04-21T16:16:35;100588.53;;;18.33;89.33
5883;BME280;2967;51.488;6.618;2023-04-21T16:21:37;100593.03;;;18.33;91.38
5883;BME280;2967;51.488;6.618;2023-04-21T16:26:42;100589.84;;;18.29;88.28
5883;BME280;2967;51.488;6.618;2023-04-21T16:31:45;100586.53;;;18.35;84.33
5883;BME280;2967;51.488;6.618;2023-04-21T16:36:48;100586.66;;;18.34;84.03
5883;BME280;2967;51.488;6.618;2023-04-21T16:41:52;100589.09;;;18.27;84.70
5883;BME280;2967;51.488;6.618;2023-04-21T16:46:55;100587.50;;;18.17;84.67
5883;BME280;2967;51.488;6.618;2023-04-21T16:51:57;100581.75;;;18.12;87.00
5883;BME280;2967;51.488;6.618;2023-04-21T16:57:01;100579.38;;;18.09;88.98
5883;BME280;2967;51.488;6.618;2023-04-21T17:02:05;100594.56;;;17.91;88.92
5883;BME280;2967;51.488;6.618;2023-04-21T17:07:08;100618.03;;;17.79;84.27
5883;BME280;2967;51.488;6.618;2023-04-21T17:12:12;100612.44;;;17.27;79.95
5883;BME280;2967;51.488;6.618;2023-04-21T17:17:14;100591.44;;;16.95;81.16
5883;BME280;2967;51.488;6.618;2023-04-21T17:22:17;100594.28;;;16.94;81.11
5883;BME280;2967;51.488;6.618;2023-04-21T17:27:21;100580.09;;;16.84;82.24
5883;BME280;2967;51.488;6.618;2023-04-21T17:32:24;100567.34;;;16.49;82.27
5883;BME280;2967;51.488;6.618;2023-04-21T17:37:26;100570.56;;;16.43;81.78
5883;BME280;2967;51.488;6.618;2023-04-21T17:42:31;100563.09;;;16.28;81.72
5883;BME280;2967;51.488;6.618;2023-04-21T17:47:34;100562.50;;;16.05;82.46
5883;BME280;2967;51.488;6.618;2023-04-21T17:52:37;100554.50;;;16.05;83.54
5883;BME280;2967;51.488;6.618;2023-04-21T17:57:41;100562.38;;;15.97;83.62
5883;BME280;2967;51.488;6.618;2023-04-21T18:02:45;100558.59;;;15.91;86.06
5883;BME280;2967;51.488;6.618;2023-04-21T18:07:47;100565.72;;;15.81;87.48
5883;BME280;2967;51.488;6.618;2023-04-21T18:12:51;100567.25;;;15.74;88.82
5883;BME280;2967;51.488;6.618;2023-04-21T18:17:54;100578.84;;;15.63;89.53
5883;BME280;2967;51.488;6.618;2023-04-21T18:22:57;100573.50;;;15.54;90.00
5883;BME280;2967;51.488;6.618;2023-04-21T18:28:01;100552.41;;;15.41;89.80
5883;BME280;2967;51.488;6.618;2023-04-21T18:33:04;100552.81;;;15.37;89.66
5883;BME280;2967;51.488;6.618;2023-04-21T18:38:07;100545.75;;;15.26;89.44
5883;BME280;2967;51.488;6.618;2023-04-21T18:43:13;100547.66;;;15.15;91.99
5883;BME280;2967;51.488;6.618;2023-04-21T18:48:16;100563.72;;;15.04;92.39
5883;BME280;2967;51.488;6.618;2023-04-21T18:53:18;100578.00;;;14.93;93.51
5883;BME280;2967;51.488;6.618;2023-04-21T18:58:23;100580.19;;;14.88;95.14
5883;BME280;2967;51.488;6.618;2023-04-21T19:03:25;100574.44;;;14.83;95.76
5883;BME280;2967;51.488;6.618;2023-04-21T19:08:29;100563.13;;;14.70;96.79
5883;BME280;2967;51.488;6.618;2023-04-21T19:13:44;100577.53;;;14.47;99.19
5883;BME280;2967;51.488;6.618;2023-04-21T19:18:48;100585.44;;;14.38;100.00
5883;BME280;2967;51.488;6.618;2023-04-21T19:23:52;100586.22;;;14.29;99.41
5883;BME280;2967;51.488;6.618;2023-04-21T19:28:57;100586.59;;;14.24;100.00
5883;BME280;2967;51.488;6.618;2023-04-21T19:33:59;100582.84;;;14.16;100.00
5883;BME280;2967;51.488;6.618;2023-04-21T19:39:02;100599.31;;;14.21;100.00
5883;BME280;2967;51.488;6.618;2023-04-21T19:44:08;100685.50;;;14.29;100.00
5883;BME280;2967;51.488;6.618;2023-04-21T19:49:11;100657.88;;;14.41;100.00
5883;BME280;2967;51.488;6.618;2023-04-21T19:54:14;100636.78;;;14.29;100.00
5883;BME280;2967;51.488;6.618;2023-04-21T19:59:19;100652.25;;;14.13;100.00
5883;BME280;2967;51.488;6.618;2023-04-21T20:04:23;100633.91;;;14.10;100.00
5883;BME280;2967;51.488;6.618;2023-04-21T20:09:26;100626.41;;;14.04;100.00
5883;BME280;2967;51.488;6.618;2023-04-21T20:14:30;100621.47;;;13.99;100.00
5883;BME280;2967;51.488;6.618;2023-04-21T20:19:33;100632.81;;;14.01;100.00
5883;BME280;2967;51.488;6.618;2023-04-21T20:24:36;100625.69;;;14.02;100.00
5883;BME280;2967;51.488;6.618;2023-04-21T20:29:40;100642.47;;;14.02;100.00
5883;BME280;2967;51.488;6.618;2023-04-21T20:34:44;100653.25;;;14.01;100.00
5883;BME280;2967;51.488;6.618;2023-04-21T20:39:46;100602.06;;;13.88;100.00
5883;BME280;2967;51.488;6.618;2023-04-21T20:44:50;100574.97;;;13.83;100.00
5883;BME280;2967;51.488;6.618;2023-04-21T20:49:53;100569.94;;;13.69;100.00
5883;BME280;2967;51.488;6.618;2023-04-21T20:54:56;100596.75;;;13.66;100.00
5883;BME280;2967;51.488;6.618;2023-04-21T21:00:00;100595.06;;;13.65;100.00
5883;BME280;2967;51.488;6.618;2023-04-21T21:05:05;100585.91;;;13.58;100.00
5883;BME280;2967;51.488;6.618;2023-04-21T21:10:08;100602.09;;;13.33;100.00
5883;BME280;2967;51.488;6.618;2023-04-21T21:15:13;100618.16;;;13.10;100.00
5883;BME280;2967;51.488;6.618;2023-04-21T21:20:16;100560.03;;;12.83;100.00
5883;BME280;2967;51.488;6.618;2023-04-21T21:25:18;100606.34;;;13.14;100.00
5883;BME280;2967;51.488;6.618;2023-04-21T21:30:22;100599.81;;;13.07;100.00
5883;BME280;2967;51.488;6.618;2023-04-21T21:35:26;100597.41;;;13.04;100.00
5883;BME280;2967;51.488;6.618;2023-04-21T21:40:28;100609.19;;;13.00;100.00
5883;BME280;2967;51.488;6.618;2023-04-21T21:45:32;100611.75;;;13.01;100.00
5883;BME280;2967;51.488;6.618;2023-04-21T21:50:35;100602.31;;;12.97;100.00
5883;BME280;2967;51.488;6.618;2023-04-21T21:55:37;100606.38;;;12.79;100.00
5883;BME280;2967;51.488;6.618;2023-04-21T22:00:41;100596.81;;;12.66;100.00
5883;BME280;2967;51.488;6.618;2023-04-21T22:05:44;100604.59;;;12.56;100.00
5883;BME280;2967;51.488;6.618;2023-04-21T22:10:46;100609.31;;;12.53;100.00
5883;BME280;2967;51.488;6.618;2023-04-21T22:15:50;100608.56;;;12.51;100.00
5883;BME280;2967;51.488;6.618;2023-04-21T22:20:54;100608.09;;;12.46;100.00
5883;BME280;2967;51.488;6.618;2023-04-21T22:25:56;100607.44;;;12.31;100.00
5883;BME280;2967;51.488;6.618;2023-04-21T22:31:00;100609.75;;;12.12;100.00
5883;BME280;2967;51.488;6.618;2023-04-21T22:36:03;100597.56;;;12.10;100.00
5883;BME280;2967;51.488;6.618;2023-04-21T22:41:09;100597.16;;;12.03;100.00
5883;BME280;2967;51.488;6.618;2023-04-21T22:46:13;100590.50;;;11.98;100.00
5883;BME280;2967;51.488;6.618;2023-04-21T22:51:16;100598.16;;;11.90;100.00
5883;BME280;2967;51.488;6.618;2023-04-21T22:56:21;100599.69;;;11.81;100.00
5883;BME280;2967;51.488;6.618;2023-04-21T23:01:26;100589.75;;;11.72;100.00
5883;BME280;2967;51.488;6.618;2023-04-21T23:06:29;100591.34;;;11.75;100.00
5883;BME280;2967;51.488;6.618;2023-04-21T23:11:33;100595.41;;;11.68;100.00
5883;BME280;2967;51.488;6.618;2023-04-21T23:16:36;100603.44;;;11.66;100.00
5883;BME280;2967;51.488;6.618;2023-04-21T23:21:39;100596.75;;;11.73;100.00
5883;BME280;2967;51.488;6.618;2023-04-21T23:26:42;100588.50;;;11.65;100.00
5883;BME280;2967;51.488;6.618;2023-04-21T23:31:46;100571.06;;;11.63;100.00
5883;BME280;2967;51.488;6.618;2023-04-21T23:36:48;100582.25;;;11.66;100.00
5883;BME280;2967;51.488;6.618;2023-04-21T23:41:51;100596.19;;;11.45;100.00
5883;BME280;2967;51.488;6.618;2023-04-21T23:46:55;100590.25;;;11.41;100.00
5883;BME280;2967;51.488;6.618;2023-04-21T23:51:58;100588.34;;;11.31;100.00
5883;BME280;2967;51.488;6.618;2023-04-21T23:57:01;100590.59;;;11.24;100.00
